RYR6231 EPSC-EPKK
Flight info
| Callsign | RYR6231 |
|---|---|
| Flight time | 0h 52m |
| Altitude | 35000 |
| Route | APNEZ DCT DENKO L619 ADVAB L623 UWLER |
| Aircraft | B738/M-SDE3FGILRWY/SB1 |
Departure
| Time | 2026-04-17 23:47 |
|---|---|
| Airport | Solidarity Szczecin–Goleniów Airport (EPSC) |
Arrival
| Time | 2026-04-18 00:39 |
|---|---|
| Airport | Kraków John Paul II International Airport (EPKK) |
| Time | Latitude | Longitude | Altitude | Speed | Heading |
|---|---|---|---|---|---|
| 2026-04-17 23:27 | 53.59282 | 14.89251 | 161 ft | 0 kts | 40° |
| 2026-04-17 23:35 | 53.59282 | 14.89250 | 161 ft | 0 kts | 40° |
| 2026-04-17 23:41 | 53.59296 | 14.89270 | 161 ft | 3 kts | 39° |
| 2026-04-17 23:42 | 53.59297 | 14.89303 | 161 ft | 5 kts | 136° |
| 2026-04-17 23:42 | 53.59255 | 14.89265 | 161 ft | 10 kts | 223° |
| 2026-04-17 23:42 | 53.59181 | 14.89268 | 161 ft | 14 kts | 128° |
| 2026-04-17 23:42 | 53.59119 | 14.89391 | 161 ft | 15 kts | 131° |
| 2026-04-17 23:43 | 53.59042 | 14.89547 | 161 ft | 19 kts | 131° |
| 2026-04-17 23:43 | 53.58943 | 14.89735 | 161 ft | 23 kts | 131° |
| 2026-04-17 23:43 | 53.58829 | 14.89953 | 161 ft | 25 kts | 130° |
| 2026-04-17 23:43 | 53.58719 | 14.90165 | 161 ft | 24 kts | 131° |
| 2026-04-17 23:44 | 53.58597 | 14.90402 | 161 ft | 28 kts | 130° |
| 2026-04-17 23:44 | 53.58460 | 14.90671 | 161 ft | 32 kts | 130° |
| 2026-04-17 23:44 | 53.58320 | 14.90946 | 161 ft | 29 kts | 131° |
| 2026-04-17 23:44 | 53.58194 | 14.91188 | 161 ft | 25 kts | 131° |
| 2026-04-17 23:45 | 53.57961 | 14.91640 | 161 ft | 23 kts | 131° |
| 2026-04-17 23:45 | 53.57872 | 14.91775 | 161 ft | 12 kts | 179° |
| 2026-04-17 23:45 | 53.57806 | 14.91713 | 161 ft | 9 kts | 218° |
| 2026-04-17 23:46 | 53.57763 | 14.91635 | 161 ft | 10 kts | 248° |
| 2026-04-17 23:46 | 53.57787 | 14.91544 | 161 ft | 8 kts | 311° |
| 2026-04-17 23:46 | 53.57916 | 14.91295 | 161 ft | 61 kts | 310° |
| 2026-04-17 23:46 | 53.58344 | 14.90467 | 161 ft | 124 kts | 310° |
| 2026-04-17 23:47 | 53.59016 | 14.89171 | 316 ft | 160 kts | 314° |
| 2026-04-17 23:47 | 53.59744 | 14.87795 | 921 ft | 160 kts | 313° |
| 2026-04-17 23:47 | 53.60485 | 14.86332 | 1400 ft | 174 kts | 312° |
| 2026-04-17 23:47 | 53.61322 | 14.84663 | 1836 ft | 192 kts | 313° |
| 2026-04-17 23:48 | 53.62192 | 14.82957 | 2368 ft | 198 kts | 312° |
| 2026-04-17 23:48 | 53.63008 | 14.80992 | 2753 ft | 214 kts | 294° |
| 2026-04-17 23:48 | 53.63237 | 14.78460 | 3195 ft | 228 kts | 263° |
| 2026-04-17 23:48 | 53.62750 | 14.75880 | 3697 ft | 239 kts | 243° |
| 2026-04-17 23:49 | 53.61689 | 14.73627 | 4097 ft | 254 kts | 221° |
| 2026-04-17 23:49 | 53.60157 | 14.72087 | 4635 ft | 263 kts | 199° |
| 2026-04-17 23:49 | 53.58328 | 14.71596 | 5105 ft | 272 kts | 178° |
| 2026-04-17 23:49 | 53.56474 | 14.72065 | 5789 ft | 274 kts | 166° |
| 2026-04-17 23:50 | 53.54702 | 14.73278 | 6441 ft | 276 kts | 145° |
| 2026-04-17 23:50 | 53.53345 | 14.75523 | 7020 ft | 280 kts | 127° |
| 2026-04-17 23:50 | 53.52148 | 14.78094 | 7719 ft | 282 kts | 128° |
| 2026-04-17 23:50 | 53.50876 | 14.80627 | 8379 ft | 286 kts | 130° |
| 2026-04-17 23:51 | 53.49563 | 14.83147 | 9059 ft | 290 kts | 130° |
| 2026-04-17 23:51 | 53.48240 | 14.85672 | 9728 ft | 293 kts | 130° |
| 2026-04-17 23:51 | 53.46886 | 14.88267 | 10412 ft | 297 kts | 130° |
| 2026-04-17 23:51 | 53.45505 | 14.90934 | 10848 ft | 310 kts | 130° |
| 2026-04-17 23:52 | 53.44064 | 14.93721 | 11237 ft | 325 kts | 130° |
| 2026-04-17 23:52 | 53.42556 | 14.96639 | 11633 ft | 339 kts | 130° |
| 2026-04-17 23:52 | 53.40970 | 14.99702 | 11998 ft | 354 kts | 130° |
| 2026-04-17 23:52 | 53.39321 | 15.02885 | 12563 ft | 362 kts | 130° |
| 2026-04-17 23:53 | 53.37676 | 15.06056 | 13249 ft | 366 kts | 130° |
| 2026-04-17 23:53 | 53.36000 | 15.09281 | 13958 ft | 370 kts | 130° |
| 2026-04-17 23:53 | 53.34301 | 15.12544 | 14671 ft | 373 kts | 130° |
| 2026-04-17 23:53 | 53.32584 | 15.15840 | 15322 ft | 379 kts | 130° |
| 2026-04-17 23:54 | 53.30835 | 15.19190 | 15975 ft | 383 kts | 130° |
| 2026-04-17 23:54 | 53.29075 | 15.22556 | 16618 ft | 388 kts | 130° |
| 2026-04-17 23:54 | 53.27250 | 15.25981 | 17222 ft | 394 kts | 131° |
| 2026-04-17 23:54 | 53.25305 | 15.29223 | 17804 ft | 399 kts | 136° |
| 2026-04-17 23:55 | 53.23195 | 15.32194 | 18418 ft | 403 kts | 140° |
| 2026-04-17 23:55 | 53.20947 | 15.35054 | 19016 ft | 408 kts | 142° |
| 2026-04-17 23:55 | 53.18631 | 15.37879 | 19622 ft | 412 kts | 143° |
| 2026-04-17 23:55 | 53.16307 | 15.40695 | 20195 ft | 416 kts | 142° |
| 2026-04-17 23:56 | 53.13949 | 15.43565 | 20737 ft | 421 kts | 142° |
| 2026-04-17 23:56 | 53.11574 | 15.46472 | 21300 ft | 425 kts | 142° |
| 2026-04-17 23:56 | 53.09174 | 15.49422 | 21837 ft | 429 kts | 142° |
| 2026-04-17 23:56 | 53.06764 | 15.52393 | 22360 ft | 434 kts | 142° |
| 2026-04-17 23:57 | 53.04329 | 15.55397 | 22846 ft | 438 kts | 142° |
| 2026-04-17 23:57 | 53.01874 | 15.58427 | 23368 ft | 442 kts | 142° |
| 2026-04-17 23:57 | 52.99390 | 15.61491 | 23876 ft | 446 kts | 142° |
| 2026-04-17 23:57 | 52.96914 | 15.64542 | 24337 ft | 450 kts | 141° |
| 2026-04-17 23:58 | 52.94388 | 15.67653 | 24757 ft | 455 kts | 142° |
| 2026-04-17 23:58 | 52.91799 | 15.70835 | 25233 ft | 459 kts | 142° |
| 2026-04-17 23:58 | 52.89257 | 15.73956 | 25696 ft | 462 kts | 142° |
| 2026-04-17 23:58 | 52.86652 | 15.77151 | 26104 ft | 467 kts | 142° |
| 2026-04-17 23:59 | 52.84004 | 15.80394 | 26557 ft | 470 kts | 142° |
| 2026-04-17 23:59 | 52.81388 | 15.83594 | 26969 ft | 474 kts | 142° |
| 2026-04-17 23:59 | 52.78780 | 15.86875 | 27405 ft | 476 kts | 140° |
| 2026-04-17 23:59 | 52.76163 | 15.90300 | 27784 ft | 480 kts | 139° |
| 2026-04-18 00:00 | 52.73544 | 15.93797 | 28283 ft | 481 kts | 138° |
| 2026-04-18 00:00 | 52.70976 | 15.97246 | 28964 ft | 477 kts | 138° |
| 2026-04-18 00:00 | 52.68372 | 16.00736 | 29526 ft | 476 kts | 138° |
| 2026-04-18 00:00 | 52.65786 | 16.04191 | 29993 ft | 477 kts | 138° |
| 2026-04-18 00:01 | 52.63194 | 16.07638 | 30457 ft | 477 kts | 138° |
| 2026-04-18 00:01 | 52.60607 | 16.11063 | 30889 ft | 478 kts | 138° |
| 2026-04-18 00:01 | 52.58017 | 16.14480 | 31286 ft | 479 kts | 138° |
| 2026-04-18 00:01 | 52.55418 | 16.17898 | 31675 ft | 479 kts | 138° |
| 2026-04-18 00:02 | 52.52816 | 16.21311 | 32084 ft | 480 kts | 137° |
| 2026-04-18 00:02 | 52.50190 | 16.24745 | 32495 ft | 479 kts | 138° |
| 2026-04-18 00:02 | 52.47586 | 16.28143 | 32819 ft | 481 kts | 137° |
| 2026-04-18 00:02 | 52.44953 | 16.31572 | 33208 ft | 481 kts | 137° |
| 2026-04-18 00:03 | 52.42303 | 16.35017 | 33553 ft | 482 kts | 137° |
| 2026-04-18 00:03 | 52.39686 | 16.38414 | 33910 ft | 482 kts | 137° |
| 2026-04-18 00:03 | 52.37014 | 16.41877 | 34278 ft | 483 kts | 137° |
| 2026-04-18 00:03 | 52.34361 | 16.45314 | 34581 ft | 484 kts | 137° |
| 2026-04-18 00:04 | 52.31706 | 16.48748 | 34760 ft | 489 kts | 137° |
| 2026-04-18 00:04 | 52.26302 | 16.55726 | 34894 ft | 502 kts | 137° |
| 2026-04-18 00:05 | 52.20700 | 16.62933 | 35095 ft | 514 kts | 137° |
| 2026-04-18 00:05 | 52.17912 | 16.66508 | 35243 ft | 517 kts | 138° |
| 2026-04-18 00:05 | 52.15033 | 16.70202 | 35256 ft | 518 kts | 138° |
| 2026-04-18 00:06 | 52.09736 | 16.77840 | 35252 ft | 509 kts | 131° |
| 2026-04-18 00:06 | 52.04785 | 16.86128 | 35249 ft | 510 kts | 128° |
| 2026-04-18 00:07 | 51.99949 | 16.94517 | 35243 ft | 509 kts | 128° |
| 2026-04-18 00:07 | 51.95074 | 17.02866 | 35233 ft | 507 kts | 128° |
| 2026-04-18 00:08 | 51.90177 | 17.11121 | 35223 ft | 508 kts | 129° |
| 2026-04-18 00:08 | 51.85251 | 17.19341 | 35228 ft | 507 kts | 129° |
| 2026-04-18 00:09 | 51.80321 | 17.27541 | 35223 ft | 506 kts | 129° |
| 2026-04-18 00:09 | 51.75470 | 17.35664 | 35223 ft | 504 kts | 129° |
| 2026-04-18 00:10 | 51.70570 | 17.43861 | 35221 ft | 504 kts | 129° |
| 2026-04-18 00:10 | 51.65669 | 17.51935 | 35223 ft | 507 kts | 129° |
| 2026-04-18 00:11 | 51.60724 | 17.60003 | 35218 ft | 504 kts | 130° |
| 2026-04-18 00:11 | 51.55794 | 17.68014 | 35218 ft | 503 kts | 130° |
| 2026-04-18 00:12 | 51.50828 | 17.76073 | 35219 ft | 504 kts | 130° |
| 2026-04-18 00:12 | 51.45903 | 17.84041 | 35218 ft | 501 kts | 130° |
| 2026-04-18 00:13 | 51.40976 | 17.91988 | 35217 ft | 501 kts | 130° |
| 2026-04-18 00:13 | 51.36047 | 17.99920 | 35219 ft | 502 kts | 130° |
| 2026-04-18 00:14 | 51.31113 | 18.07830 | 35220 ft | 499 kts | 130° |
| 2026-04-18 00:14 | 51.26161 | 18.15743 | 35220 ft | 500 kts | 130° |
| 2026-04-18 00:15 | 51.21291 | 18.23498 | 34986 ft | 500 kts | 131° |
| 2026-04-18 00:15 | 51.18833 | 18.27399 | 34699 ft | 487 kts | 130° |
| 2026-04-18 00:15 | 51.16474 | 18.31129 | 34263 ft | 476 kts | 130° |
| 2026-04-18 00:15 | 51.14151 | 18.34798 | 33763 ft | 466 kts | 130° |
| 2026-04-18 00:16 | 51.11876 | 18.38387 | 33264 ft | 457 kts | 131° |
| 2026-04-18 00:16 | 51.09615 | 18.41954 | 32753 ft | 449 kts | 130° |
| 2026-04-18 00:16 | 51.07389 | 18.45467 | 32250 ft | 447 kts | 130° |
| 2026-04-18 00:16 | 51.05202 | 18.48917 | 31746 ft | 444 kts | 131° |
| 2026-04-18 00:17 | 51.03007 | 18.52376 | 31236 ft | 441 kts | 131° |
| 2026-04-18 00:17 | 51.00834 | 18.55799 | 30708 ft | 439 kts | 130° |
| 2026-04-18 00:17 | 50.98767 | 18.59351 | 30164 ft | 434 kts | 126° |
| 2026-04-18 00:17 | 50.96920 | 18.63097 | 29632 ft | 428 kts | 121° |
| 2026-04-18 00:18 | 50.95203 | 18.66957 | 29131 ft | 423 kts | 120° |
| 2026-04-18 00:18 | 50.93568 | 18.70838 | 28637 ft | 419 kts | 119° |
| 2026-04-18 00:18 | 50.91981 | 18.74689 | 28147 ft | 415 kts | 119° |
| 2026-04-18 00:18 | 50.90403 | 18.78534 | 27654 ft | 411 kts | 119° |
| 2026-04-18 00:19 | 50.88869 | 18.82249 | 27180 ft | 407 kts | 119° |
| 2026-04-18 00:19 | 50.87312 | 18.85993 | 26698 ft | 402 kts | 119° |
| 2026-04-18 00:19 | 50.85772 | 18.89671 | 26224 ft | 398 kts | 119° |
| 2026-04-18 00:19 | 50.84243 | 18.93306 | 25757 ft | 394 kts | 120° |
| 2026-04-18 00:20 | 50.82743 | 18.96856 | 25296 ft | 390 kts | 120° |
| 2026-04-18 00:20 | 50.81245 | 19.00392 | 24843 ft | 386 kts | 120° |
| 2026-04-18 00:20 | 50.79759 | 19.03892 | 24385 ft | 382 kts | 120° |
| 2026-04-18 00:20 | 50.78268 | 19.07398 | 23933 ft | 378 kts | 120° |
| 2026-04-18 00:21 | 50.76812 | 19.10815 | 23478 ft | 373 kts | 120° |
| 2026-04-18 00:21 | 50.75395 | 19.14130 | 23058 ft | 363 kts | 119° |
| 2026-04-18 00:21 | 50.73999 | 19.17389 | 22630 ft | 355 kts | 119° |
| 2026-04-18 00:21 | 50.72641 | 19.20560 | 22221 ft | 347 kts | 119° |
| 2026-04-18 00:22 | 50.71309 | 19.23666 | 21806 ft | 339 kts | 119° |
| 2026-04-18 00:22 | 50.69993 | 19.26742 | 21413 ft | 343 kts | 119° |
| 2026-04-18 00:22 | 50.68720 | 19.29719 | 21011 ft | 345 kts | 119° |
| 2026-04-18 00:22 | 50.67381 | 19.32838 | 20603 ft | 337 kts | 120° |
| 2026-04-18 00:23 | 50.66118 | 19.35769 | 20210 ft | 331 kts | 120° |
| 2026-04-18 00:23 | 50.64832 | 19.38754 | 19823 ft | 336 kts | 119° |
| 2026-04-18 00:23 | 50.63508 | 19.41834 | 19409 ft | 338 kts | 120° |
| 2026-04-18 00:23 | 50.62207 | 19.44842 | 19009 ft | 331 kts | 120° |
| 2026-04-18 00:24 | 50.60918 | 19.47817 | 18631 ft | 324 kts | 120° |
| 2026-04-18 00:24 | 50.59638 | 19.50777 | 18236 ft | 332 kts | 119° |
| 2026-04-18 00:24 | 50.58332 | 19.53801 | 17828 ft | 333 kts | 119° |
| 2026-04-18 00:24 | 50.57037 | 19.56788 | 17429 ft | 331 kts | 119° |
| 2026-04-18 00:25 | 50.55750 | 19.59747 | 17030 ft | 328 kts | 120° |
| 2026-04-18 00:25 | 50.54456 | 19.62716 | 16627 ft | 326 kts | 119° |
| 2026-04-18 00:25 | 50.53179 | 19.65646 | 16229 ft | 324 kts | 120° |
| 2026-04-18 00:25 | 50.51895 | 19.68589 | 15843 ft | 321 kts | 120° |
| 2026-04-18 00:26 | 50.50644 | 19.71457 | 15450 ft | 319 kts | 120° |
| 2026-04-18 00:26 | 50.49381 | 19.74348 | 15053 ft | 317 kts | 120° |
| 2026-04-18 00:26 | 50.48143 | 19.77178 | 14673 ft | 315 kts | 120° |
| 2026-04-18 00:26 | 50.46918 | 19.79975 | 14289 ft | 313 kts | 120° |
| 2026-04-18 00:27 | 50.45726 | 19.82693 | 13956 ft | 310 kts | 120° |
| 2026-04-18 00:27 | 50.44507 | 19.85472 | 13597 ft | 308 kts | 120° |
| 2026-04-18 00:27 | 50.43313 | 19.88190 | 13226 ft | 306 kts | 120° |
| 2026-04-18 00:27 | 50.42126 | 19.90891 | 12855 ft | 304 kts | 120° |
| 2026-04-18 00:28 | 50.40919 | 19.93634 | 12473 ft | 302 kts | 120° |
| 2026-04-18 00:28 | 50.39734 | 19.96324 | 12105 ft | 301 kts | 120° |
| 2026-04-18 00:28 | 50.38553 | 19.99001 | 11737 ft | 299 kts | 120° |
| 2026-04-18 00:28 | 50.37371 | 20.01679 | 11366 ft | 297 kts | 120° |
| 2026-04-18 00:29 | 50.36201 | 20.04325 | 11000 ft | 295 kts | 120° |
| 2026-04-18 00:29 | 50.35029 | 20.06975 | 10630 ft | 294 kts | 120° |
| 2026-04-18 00:29 | 50.33871 | 20.09591 | 10267 ft | 292 kts | 120° |
| 2026-04-18 00:29 | 50.32732 | 20.12157 | 10068 ft | 284 kts | 120° |
| 2026-04-18 00:30 | 50.31604 | 20.14697 | 9709 ft | 283 kts | 120° |
| 2026-04-18 00:30 | 50.30476 | 20.17238 | 9358 ft | 282 kts | 121° |
| 2026-04-18 00:30 | 50.29361 | 20.19749 | 9016 ft | 280 kts | 121° |
| 2026-04-18 00:30 | 50.28259 | 20.22227 | 8679 ft | 279 kts | 121° |
| 2026-04-18 00:31 | 50.27187 | 20.24634 | 8349 ft | 277 kts | 121° |
| 2026-04-18 00:31 | 50.26080 | 20.27116 | 8042 ft | 274 kts | 121° |
| 2026-04-18 00:31 | 50.24997 | 20.29497 | 7904 ft | 266 kts | 123° |
| 2026-04-18 00:31 | 50.23738 | 20.31556 | 7750 ft | 262 kts | 141° |
| 2026-04-18 00:32 | 50.22125 | 20.32676 | 7465 ft | 265 kts | 165° |
| 2026-04-18 00:32 | 50.20281 | 20.33174 | 7162 ft | 265 kts | 170° |
| 2026-04-18 00:32 | 50.18463 | 20.33345 | 6882 ft | 264 kts | 184° |
| 2026-04-18 00:32 | 50.16695 | 20.32707 | 6601 ft | 261 kts | 205° |
| 2026-04-18 00:33 | 50.15285 | 20.31019 | 6323 ft | 253 kts | 237° |
| 2026-04-18 00:33 | 50.14606 | 20.28538 | 6059 ft | 244 kts | 261° |
| 2026-04-18 00:33 | 50.14287 | 20.25979 | 5787 ft | 242 kts | 262° |
| 2026-04-18 00:33 | 50.13948 | 20.23412 | 5621 ft | 236 kts | 261° |
| 2026-04-18 00:34 | 50.13606 | 20.20980 | 5500 ft | 228 kts | 261° |
| 2026-04-18 00:34 | 50.13263 | 20.18573 | 5247 ft | 228 kts | 261° |
| 2026-04-18 00:34 | 50.12929 | 20.16152 | 5002 ft | 226 kts | 261° |
| 2026-04-18 00:34 | 50.12607 | 20.13751 | 4764 ft | 225 kts | 261° |
| 2026-04-18 00:35 | 50.12294 | 20.11397 | 4615 ft | 222 kts | 261° |
| 2026-04-18 00:35 | 50.11984 | 20.09062 | 4425 ft | 224 kts | 261° |
| 2026-04-18 00:35 | 50.11652 | 20.06685 | 4130 ft | 227 kts | 260° |
| 2026-04-18 00:35 | 50.11329 | 20.04291 | 3817 ft | 227 kts | 261° |
| 2026-04-18 00:36 | 50.11012 | 20.01905 | 3521 ft | 223 kts | 260° |
| 2026-04-18 00:36 | 50.10695 | 19.99607 | 3270 ft | 217 kts | 260° |
| 2026-04-18 00:36 | 50.10382 | 19.97339 | 3003 ft | 210 kts | 260° |
| 2026-04-18 00:36 | 50.10084 | 19.95170 | 2822 ft | 200 kts | 260° |
| 2026-04-18 00:37 | 50.09806 | 19.93155 | 2580 ft | 186 kts | 260° |
| 2026-04-18 00:37 | 50.09542 | 19.91240 | 2305 ft | 177 kts | 260° |
| 2026-04-18 00:37 | 50.09295 | 19.89445 | 2087 ft | 165 kts | 261° |
| 2026-04-18 00:37 | 50.09061 | 19.87761 | 1839 ft | 157 kts | 261° |
| 2026-04-18 00:38 | 50.08834 | 19.86110 | 1637 ft | 155 kts | 260° |
| 2026-04-18 00:38 | 50.08606 | 19.84476 | 1422 ft | 154 kts | 260° |
| 2026-04-18 00:38 | 50.08379 | 19.82878 | 1230 ft | 153 kts | 259° |
| 2026-04-18 00:38 | 50.08152 | 19.81241 | 1008 ft | 153 kts | 259° |
| 2026-04-18 00:39 | 50.07937 | 19.79643 | 820 ft | 148 kts | 259° |
| 2026-04-18 00:39 | 50.07739 | 19.78226 | 797 ft | 108 kts | 257° |
| 2026-04-18 00:39 | 50.07630 | 19.77448 | 797 ft | 56 kts | 258° |
| 2026-04-18 00:39 | 50.07572 | 19.77035 | 797 ft | 21 kts | 258° |
| 2026-04-18 00:40 | 50.07549 | 19.76902 | 797 ft | 10 kts | 248° |
| 2026-04-18 00:40 | 50.07501 | 19.76849 | 797 ft | 7 kts | 179° |
| 2026-04-18 00:40 | 50.07456 | 19.76862 | 797 ft | 5 kts | 167° |
| 2026-04-18 00:40 | 50.07428 | 19.76872 | 797 ft | 3 kts | 167° |
| 2026-04-18 00:41 | 50.07400 | 19.76882 | 797 ft | 6 kts | 168° |
| 2026-04-18 00:41 | 50.07337 | 19.76903 | 797 ft | 11 kts | 162° |
| 2026-04-18 00:41 | 50.07319 | 19.77039 | 797 ft | 17 kts | 77° |
| 2026-04-18 00:41 | 50.07349 | 19.77244 | 797 ft | 21 kts | 77° |
| 2026-04-18 00:42 | 50.07380 | 19.77464 | 797 ft | 20 kts | 78° |
| 2026-04-18 00:42 | 50.07412 | 19.77707 | 797 ft | 25 kts | 77° |
| 2026-04-18 00:42 | 50.07452 | 19.77993 | 797 ft | 26 kts | 78° |
| 2026-04-18 00:42 | 50.07489 | 19.78254 | 797 ft | 23 kts | 78° |
| 2026-04-18 00:43 | 50.07520 | 19.78483 | 797 ft | 20 kts | 77° |
| 2026-04-18 00:43 | 50.07550 | 19.78683 | 797 ft | 17 kts | 77° |
| 2026-04-18 00:43 | 50.07575 | 19.78867 | 797 ft | 19 kts | 78° |
| 2026-04-18 00:43 | 50.07605 | 19.79088 | 797 ft | 20 kts | 81° |
| 2026-04-18 00:44 | 50.07632 | 19.79286 | 797 ft | 17 kts | 77° |
| 2026-04-18 00:44 | 50.07655 | 19.79455 | 797 ft | 14 kts | 78° |
| 2026-04-18 00:44 | 50.07674 | 19.79593 | 797 ft | 11 kts | 78° |
| 2026-04-18 00:44 | 50.07690 | 19.79705 | 797 ft | 9 kts | 78° |
| 2026-04-18 00:45 | 50.07703 | 19.79802 | 797 ft | 11 kts | 83° |
| 2026-04-18 00:45 | 50.07645 | 19.79888 | 797 ft | 15 kts | 168° |
| 2026-04-18 00:45 | 50.07552 | 19.79921 | 797 ft | 12 kts | 169° |
| 2026-04-18 00:45 | 50.07513 | 19.79999 | 797 ft | 9 kts | 78° |
| 2026-04-18 00:46 | 50.07525 | 19.80082 | 797 ft | 6 kts | 78° |
| 2026-04-18 00:46 | 50.07547 | 19.80107 | 797 ft | 3 kts | 348° |
| 2026-04-18 00:46 | 50.07568 | 19.80100 | 797 ft | 2 kts | 348° |
| 2026-04-18 00:46 | 50.07577 | 19.80097 | 797 ft | 0 kts | 348° |